Blaney Park, Michigan
Current Conditions -  °F | °C
As of 12:34 AM on Sunday 26 Oct 2014 (Local Time) from KISQ Reporting Station
Clear Clear  
Wind Chill: 43°   Ceiling: Unl
Heat Index: 49°   Visibility: 10mi
Dew Point: 32°   Wind: 13mph
Humidity: 53%   Direction: 310°NW
Pressure: 29.79"   Gusts: 18mph
Location:  46.2466°N, 85.928°W
Report Text: KISQ 260434Z AUTO 31011G16KT 10SM CLR 09/00 A2979 RMK AO2 T00920000
Loading
Personal Weather Stations






























Interactive Weather Map
Tropical Storm Tracking
New forecast layout! Learn more

10-Day Weather Forecast

Advertisements
Track Severe Weather on mobile